createdAt,value
2022-07-31T00:03:19.127Z,99233.22
2022-07-31T00:08:23.624Z,99229.84
2022-07-31T00:13:57.798Z,99227.63
2022-07-31T00:18:49.628Z,99226.84
2022-07-31T00:23:54.387Z,99231.81
2022-07-31T00:28:57.470Z,99232.41
2022-07-31T00:34:00.511Z,99231.66
2022-07-31T00:39:05.213Z,99236.44
2022-07-31T00:44:12.126Z,99237.44
2022-07-31T00:49:15.582Z,99240.22
2022-07-31T00:54:22.519Z,99235.41
2022-07-31T00:59:26.337Z,99233.84
2022-07-31T01:04:31.106Z,99234.72
2022-07-31T01:09:37.396Z,99233.75
2022-07-31T01:14:44.853Z,99228.97
2022-07-31T01:19:49.888Z,99237.16
2022-07-31T01:25:05.266Z,99241.06
2022-07-31T01:30:30.615Z,99235.69
2022-07-31T01:35:42.019Z,99243.88
2022-07-31T01:40:48.564Z,99240.06
2022-07-31T01:45:57.419Z,99238.97
2022-07-31T01:51:04.115Z,99235.34
2022-07-31T01:56:08.691Z,99238.00
2022-07-31T02:01:16.574Z,99229.25
2022-07-31T02:06:21.552Z,99227.75
2022-07-31T02:11:25.020Z,99234.56
2022-07-31T02:16:30.600Z,99219.88
2022-07-31T02:21:43.084Z,99219.44
2022-07-31T02:26:49.000Z,99207.84
2022-07-31T02:32:02.801Z,99206.66
2022-07-31T02:37:16.489Z,99208.72
2022-07-31T02:42:20.504Z,99212.88
2022-07-31T02:47:25.286Z,99206.03
2022-07-31T02:52:30.016Z,99193.88
2022-07-31T02:57:33.157Z,99194.72
2022-07-31T03:02:37.931Z,99185.38
2022-07-31T03:07:41.789Z,99176.06
2022-07-31T03:12:49.134Z,99173.19
2022-07-31T03:17:54.997Z,99176.28
2022-07-31T03:23:08.528Z,99177.13
2022-07-31T03:28:24.025Z,99175.16
2022-07-31T03:33:28.574Z,99173.56
2022-07-31T03:38:39.728Z,99168.28
2022-07-31T03:44:02.364Z,99168.28
2022-07-31T03:49:09.580Z,99164.19
2022-07-31T03:54:13.010Z,99160.09
2022-07-31T03:59:21.580Z,99157.75
2022-07-31T04:04:26.377Z,99166.72
2022-07-31T04:09:38.695Z,99167.09
2022-07-31T04:14:42.857Z,99183.66
2022-07-31T04:19:49.620Z,99180.75
2022-07-31T04:24:53.389Z,99176.13
2022-07-31T04:30:03.017Z,99171.28
2022-07-31T04:35:09.575Z,99175.66
2022-07-31T04:40:13.331Z,99171.28
2022-07-31T04:45:16.403Z,99177.41
2022-07-31T04:50:21.079Z,99183.53
2022-07-31T04:55:34.706Z,99182.47
2022-07-31T05:00:37.814Z,99180.00
2022-07-31T05:05:45.374Z,99184.63
2022-07-31T05:11:05.962Z,99190.97
2022-07-31T05:16:12.632Z,99202.19
2022-07-31T05:21:17.968Z,99196.53
2022-07-31T05:26:32.305Z,99198.00
2022-07-31T05:31:35.432Z,99202.69
2022-07-31T05:36:39.962Z,99200.78
2022-07-31T05:41:44.584Z,99204.56
2022-07-31T05:51:56.483Z,99216.66
2022-07-31T05:56:59.971Z,99217.47
2022-07-31T06:02:10.951Z,99212.56
2022-07-31T06:07:52.108Z,99215.13
2022-07-31T06:12:57.398Z,99212.22
2022-07-31T06:18:00.693Z,99198.53
2022-07-31T06:23:19.832Z,99200.97
2022-07-31T06:28:49.297Z,99190.66
2022-07-31T06:33:54.396Z,99195.50
2022-07-31T06:39:02.691Z,99186.88
2022-07-31T06:44:05.792Z,99193.69
2022-07-31T06:49:27.286Z,99198.53
2022-07-31T06:54:31.746Z,99194.94
2022-07-31T06:59:39.951Z,99195.75
2022-07-31T07:05:01.530Z,99199.56
2022-07-31T07:10:09.060Z,99205.66
2022-07-31T07:15:30.769Z,99212.50
2022-07-31T07:20:34.016Z,99210.47
2022-07-31T07:25:38.788Z,99197.19
2022-07-31T07:30:44.513Z,99205.59
2022-07-31T07:35:48.796Z,99205.59
2022-07-31T07:40:56.379Z,99204.03
2022-07-31T07:46:00.098Z,99201.91
2022-07-31T07:51:03.106Z,99192.47
2022-07-31T07:56:11.969Z,99188.31
2022-07-31T08:01:40.638Z,99179.34
2022-07-31T08:06:53.240Z,99174.97
2022-07-31T08:12:01.398Z,99173.75
2022-07-31T08:17:42.839Z,99168.69
2022-07-31T08:22:47.559Z,99168.25
2022-07-31T08:27:52.005Z,99149.16
2022-07-31T08:32:56.984Z,99147.47
2022-07-31T08:38:25.950Z,99152.84
2022-07-31T08:44:01.370Z,99147.16
2022-07-31T08:49:12.927Z,99151.47
2022-07-31T08:54:21.394Z,99153.34
2022-07-31T08:59:25.861Z,99148.66
2022-07-31T09:04:30.191Z,99161.22
2022-07-31T09:09:50.792Z,99157.13
2022-07-31T09:14:56.433Z,99139.91
2022-07-31T09:19:59.469Z,99137.22
2022-07-31T09:25:12.057Z,99123.94
2022-07-31T09:30:17.158Z,99131.50
2022-07-31T09:35:49.008Z,99127.91
2022-07-31T09:40:57.024Z,99122.22
2022-07-31T09:46:25.392Z,99113.94
2022-07-31T09:51:39.522Z,99105.44
2022-07-31T09:56:46.838Z,99117.72
2022-07-31T10:01:51.387Z,99112.50
2022-07-31T10:06:57.761Z,99123.16
2022-07-31T10:12:03.232Z,99095.81
2022-07-31T10:17:10.957Z,99104.53
2022-07-31T10:22:33.452Z,99097.13
2022-07-31T10:27:39.362Z,99101.84
2022-07-31T10:32:48.324Z,99090.16
2022-07-31T10:38:20.604Z,99091.81
2022-07-31T10:43:37.163Z,99084.44
2022-07-31T10:49:00.742Z,99093.69
2022-07-31T10:54:40.869Z,99093.88
2022-07-31T11:00:12.009Z,99093.88
2022-07-31T11:06:01.651Z,99112.69
2022-07-31T11:11:17.615Z,99078.41
2022-07-31T11:16:30.358Z,99075.50
2022-07-31T11:21:49.085Z,99075.19
2022-07-31T11:26:53.056Z,99082.34
2022-07-31T11:31:56.534Z,99073.47
2022-07-31T11:37:01.883Z,99073.59
2022-07-31T11:42:09.600Z,99074.94
2022-07-31T11:48:09.969Z,99075.66
2022-07-31T11:52:38.662Z,99072.88
2022-07-31T11:57:51.299Z,99068.19
2022-07-31T12:02:55.769Z,99059.06
2022-07-31T12:08:00.485Z,99049.72
2022-07-31T12:13:04.703Z,99039.63
2022-07-31T12:18:08.045Z,99040.69
2022-07-31T12:23:40.652Z,99025.63
2022-07-31T12:28:36.192Z,99028.31
2022-07-31T12:33:43.530Z,99036.50
2022-07-31T12:38:49.063Z,99028.63
2022-07-31T12:43:52.825Z,99026.47
2022-07-31T12:48:55.991Z,99034.22
2022-07-31T12:54:00.421Z,99029.16
2022-07-31T12:59:03.531Z,99017.31
2022-07-31T13:04:08.013Z,98997.75
2022-07-31T13:09:22.923Z,98998.91
2022-07-31T13:14:26.422Z,98986.91
2022-07-31T13:19:29.579Z,98987.66
2022-07-31T13:24:34.009Z,98969.50
2022-07-31T13:29:36.993Z,98980.81
2022-07-31T13:34:40.001Z,98977.69
2022-07-31T13:39:44.384Z,98967.22
2022-07-31T13:44:47.389Z,98962.28
2022-07-31T13:49:50.494Z,98964.66
2022-07-31T13:54:54.919Z,98949.69
2022-07-31T13:59:57.927Z,98951.94
2022-07-31T14:05:00.945Z,98950.38
2022-07-31T14:10:06.301Z,98941.47
2022-07-31T14:15:10.169Z,98944.22
2022-07-31T14:20:13.885Z,98941.53
2022-07-31T14:25:18.305Z,98953.50
2022-07-31T14:30:22.073Z,98949.59
2022-07-31T14:35:26.051Z,98955.84
2022-07-31T14:40:30.939Z,98954.56
2022-07-31T14:45:38.266Z,98947.56
2022-07-31T14:50:54.564Z,98936.34
2022-07-31T14:56:03.612Z,98936.63
2022-07-31T15:01:07.210Z,98936.38
2022-07-31T15:06:39.953Z,98945.03
2022-07-31T15:11:59.251Z,98937.59
2022-07-31T15:16:57.781Z,98940.28
2022-07-31T15:22:15.900Z,98932.09
2022-07-31T15:27:21.965Z,98934.69
2022-07-31T15:32:25.226Z,98924.16
2022-07-31T15:37:30.272Z,98931.97
2022-07-31T15:42:38.117Z,98930.81
2022-07-31T15:47:42.329Z,98918.53
2022-07-31T15:52:45.416Z,98922.25
2022-07-31T15:57:49.843Z,98924.56
2022-07-31T16:02:53.060Z,98919.50
2022-07-31T16:08:32.081Z,98917.31
2022-07-31T16:13:20.375Z,98910.56
2022-07-31T16:18:23.503Z,98906.97
2022-07-31T16:23:27.990Z,98901.56
2022-07-31T16:28:32.373Z,98902.84
2022-07-31T16:33:35.371Z,98898.50
2022-07-31T16:38:38.353Z,98897.56
2022-07-31T16:43:49.556Z,98900.06
2022-07-31T16:48:54.773Z,98895.47
2022-07-31T16:54:13.153Z,98886.13
2022-07-31T16:59:20.583Z,98894.81
2022-07-31T17:04:23.601Z,98889.41
2022-07-31T17:09:28.572Z,98887.81
2022-07-31T17:14:32.967Z,98878.72
2022-07-31T17:19:45.904Z,98881.47
2022-07-31T17:24:51.728Z,98885.13
2022-07-31T17:29:56.237Z,98880.03
2022-07-31T17:34:59.256Z,98887.63
2022-07-31T17:40:02.297Z,98887.53
2022-07-31T17:45:08.036Z,98889.22
2022-07-31T17:50:11.775Z,98884.84
2022-07-31T17:55:14.789Z,98882.00
2022-07-31T18:00:19.630Z,98887.63
2022-07-31T18:05:22.657Z,98891.19
2022-07-31T18:10:51.847Z,98889.53
2022-07-31T18:15:50.327Z,98895.75
2022-07-31T18:20:53.284Z,98896.88
2022-07-31T18:25:57.053Z,98885.31
2022-07-31T18:31:01.843Z,98901.34
2022-07-31T18:36:05.485Z,98897.25
2022-07-31T18:41:08.473Z,98895.06
2022-07-31T18:46:12.841Z,98897.59
2022-07-31T18:51:15.928Z,98898.09
2022-07-31T18:56:19.169Z,98906.00
2022-07-31T19:01:24.617Z,98907.22
2022-07-31T19:06:27.838Z,98902.97
2022-07-31T19:11:31.370Z,98907.72
2022-07-31T19:16:35.789Z,98906.28
2022-07-31T19:21:41.301Z,98920.78
2022-07-31T19:26:44.972Z,98911.16
2022-07-31T19:31:49.516Z,98918.72
2022-07-31T19:36:52.543Z,98924.56
2022-07-31T19:42:21.341Z,98937.31
2022-07-31T19:47:20.253Z,98938.91
2022-07-31T19:52:23.730Z,98937.06
2022-07-31T19:57:26.729Z,98950.13
2022-07-31T20:02:31.121Z,98945.91
2022-07-31T20:07:34.315Z,98937.88
2022-07-31T20:12:37.440Z,98929.94
2022-07-31T20:17:41.911Z,98921.59
2022-07-31T20:22:45.162Z,98920.88
2022-07-31T20:27:48.196Z,98910.81
2022-07-31T20:32:52.954Z,98904.50
2022-07-31T20:37:57.441Z,98904.31
2022-07-31T20:43:03.302Z,98906.47
2022-07-31T20:48:08.346Z,98909.66
2022-07-31T20:53:11.443Z,98899.63
2022-07-31T20:58:14.520Z,98902.38
2022-07-31T21:03:19.341Z,98890.25
2022-07-31T21:08:22.446Z,98891.16
2022-07-31T21:13:26.638Z,98894.28
2022-07-31T21:18:34.711Z,98888.00
2022-07-31T21:23:38.336Z,98891.06
2022-07-31T21:28:41.701Z,98885.06
2022-07-31T21:33:46.862Z,98890.59
2022-07-31T21:38:50.240Z,98886.41
2022-07-31T21:43:59.210Z,98883.31
2022-07-31T21:49:04.395Z,98888.84
2022-07-31T21:54:07.568Z,98896.84
2022-07-31T21:59:10.553Z,98891.69
2022-07-31T22:04:15.062Z,98898.47
2022-07-31T22:09:19.039Z,98895.09
2022-07-31T22:14:22.403Z,98900.03
2022-07-31T22:19:27.361Z,98909.59
2022-07-31T22:24:30.828Z,98898.34
2022-07-31T22:29:36.438Z,98898.28
2022-07-31T22:34:41.089Z,98900.69
2022-07-31T22:39:44.427Z,98903.47
2022-07-31T22:44:47.917Z,98909.19
2022-07-31T22:49:52.504Z,98906.84
2022-07-31T22:54:55.498Z,98901.31
2022-07-31T22:59:59.028Z,98901.81
2022-07-31T23:05:03.492Z,98909.44
2022-07-31T23:10:07.377Z,98887.34
2022-07-31T23:15:10.428Z,98894.13
2022-07-31T23:20:15.322Z,98896.53
2022-07-31T23:25:20.761Z,98889.03
2022-07-31T23:30:24.321Z,98889.84
2022-07-31T23:35:28.707Z,98891.97
2022-07-31T23:40:31.912Z,98887.50
2022-07-31T23:45:35.979Z,98895.38
2022-07-31T23:50:40.365Z,98878.59
2022-07-31T23:55:43.490Z,98867.38
